createdAt,value
2023-11-02T00:04:52.556Z,2.80
2023-11-02T00:10:01.078Z,2.40
2023-11-02T00:15:07.448Z,2.92
2023-11-02T00:20:36.249Z,2.45
2023-11-02T00:26:00.534Z,2.97
2023-11-02T00:31:07.492Z,2.60
2023-11-02T00:36:17.498Z,2.28
2023-11-02T00:41:22.860Z,2.70
2023-11-02T00:46:28.078Z,3.38
2023-11-02T00:51:35.728Z,2.20
2023-11-02T00:56:41.502Z,2.15
2023-11-02T01:01:47.416Z,2.67
2023-11-02T01:06:55.334Z,2.35
2023-11-02T01:12:00.440Z,2.63
2023-11-02T01:17:05.519Z,2.58
2023-11-02T01:22:30.275Z,2.88
2023-11-02T01:27:35.505Z,2.08
2023-11-02T01:32:40.581Z,2.65
2023-11-02T01:37:49.991Z,2.72
2023-11-02T01:42:55.141Z,2.50
2023-11-02T01:48:09.587Z,2.10
2023-11-02T01:53:41.150Z,2.33
2023-11-02T01:58:56.494Z,2.38
2023-11-02T02:04:10.049Z,1.92
2023-11-02T02:09:24.427Z,2.05
2023-11-02T02:14:36.781Z,1.80
2023-11-02T02:20:01.653Z,1.77
2023-11-02T02:25:18.254Z,2.00
2023-11-02T02:30:37.816Z,1.75
2023-11-02T02:35:48.810Z,1.92
2023-11-02T02:41:02.646Z,2.28
2023-11-02T02:46:08.697Z,2.05
2023-11-02T02:51:16.829Z,2.17
2023-11-02T02:56:26.709Z,2.47
2023-11-02T03:01:33.718Z,3.00
2023-11-02T03:06:43.374Z,2.55
2023-11-02T03:11:49.550Z,3.20
2023-11-02T03:17:05.167Z,2.78
2023-11-02T03:22:21.249Z,4.00
2023-11-02T03:27:33.036Z,6.43
2023-11-02T03:32:47.149Z,4.68
2023-11-02T03:38:03.558Z,4.82
2023-11-02T03:43:11.126Z,3.95
2023-11-02T03:48:24.739Z,3.22
2023-11-02T03:53:38.441Z,3.78
2023-11-02T03:58:53.511Z,3.70
2023-11-02T04:04:08.640Z,4.55
2023-11-02T04:09:21.171Z,5.05
2023-11-02T04:14:29.262Z,5.47
2023-11-02T04:19:34.308Z,5.75
2023-11-02T04:24:44.945Z,5.20
2023-11-02T04:29:50.025Z,4.95
2023-11-02T04:34:55.065Z,4.78
2023-11-02T04:40:02.869Z,4.38
2023-11-02T04:45:08.861Z,5.05
2023-11-02T04:50:13.964Z,4.07
2023-11-02T04:55:21.559Z,4.80
2023-11-02T05:00:26.626Z,3.78
2023-11-02T05:05:31.706Z,3.17
2023-11-02T05:10:39.308Z,2.67
2023-11-02T05:15:55.795Z,3.13
2023-11-02T05:21:01.917Z,2.00
2023-11-02T05:26:09.907Z,2.70
2023-11-02T05:31:14.915Z,2.90
2023-11-02T05:36:26.678Z,3.72
2023-11-02T05:41:34.438Z,3.05
2023-11-02T05:46:39.457Z,2.08
2023-11-02T05:51:44.469Z,3.00
2023-11-02T05:56:52.108Z,2.63
2023-11-02T06:01:57.121Z,3.95
2023-11-02T06:07:02.200Z,3.13
2023-11-02T06:12:11.310Z,2.88
2023-11-02T06:17:16.336Z,4.47
2023-11-02T06:22:21.856Z,2.38
2023-11-02T06:27:29.648Z,3.55
2023-11-02T06:32:34.797Z,2.63
2023-11-02T06:38:00.956Z,2.65
2023-11-02T06:43:08.560Z,2.58
2023-11-02T06:48:13.582Z,2.60
2023-11-02T06:53:18.662Z,3.78
2023-11-02T06:58:29.004Z,3.28
2023-11-02T07:03:35.180Z,2.72
2023-11-02T07:08:40.393Z,13.10
2023-11-02T07:13:48.770Z,2.53
2023-11-02T07:18:53.828Z,2.65
2023-11-02T07:24:01.826Z,2.80
2023-11-02T07:29:09.477Z,7.78
2023-11-02T07:34:17.694Z,4.50
2023-11-02T07:39:22.757Z,5.75
2023-11-02T07:44:30.442Z,6.18
2023-11-02T07:49:35.614Z,3.97
2023-11-02T07:54:40.814Z,2.80
2023-11-02T07:59:50.225Z,2.83
2023-11-02T08:04:55.358Z,2.65
2023-11-02T08:10:00.710Z,2.95
2023-11-02T08:15:09.349Z,1.48
2023-11-02T08:20:15.611Z,1.40
2023-11-02T08:25:23.272Z,1.67
2023-11-02T08:30:31.796Z,1.50
2023-11-02T08:35:36.830Z,1.63
2023-11-02T08:40:42.731Z,2.20
2023-11-02T08:45:50.738Z,3.03
2023-11-02T08:51:01.030Z,2.13
2023-11-02T08:56:11.016Z,2.78
2023-11-02T09:01:24.232Z,3.70
2023-11-02T09:06:30.257Z,2.22
2023-11-02T09:11:35.323Z,2.10
2023-11-02T09:16:42.961Z,2.05
2023-11-02T09:21:48.813Z,2.72
2023-11-02T09:26:53.925Z,1.80
2023-11-02T09:32:04.404Z,3.83
2023-11-02T09:37:10.122Z,2.70
2023-11-02T09:42:16.242Z,2.83
2023-11-02T09:47:24.412Z,3.05
2023-11-02T09:52:29.471Z,3.50
2023-11-02T09:57:35.932Z,2.70
2023-11-02T10:02:45.307Z,2.38
2023-11-02T10:12:59.364Z,1.83
2023-11-02T10:18:07.223Z,3.67
2023-11-02T10:23:14.768Z,2.33
2023-11-02T10:28:21.193Z,3.25
2023-11-02T10:33:31.996Z,2.88
2023-11-02T10:38:37.135Z,2.85
2023-11-02T10:43:42.393Z,3.10
2023-11-02T10:48:50.231Z,3.65
2023-11-02T10:54:04.291Z,7.80
2023-11-02T10:59:09.639Z,2.10
2023-11-02T11:04:17.602Z,2.65
2023-11-02T11:09:23.191Z,2.60
2023-11-02T11:14:28.834Z,3.45
2023-11-02T11:19:38.049Z,2.40
2023-11-02T11:24:45.871Z,2.65
2023-11-02T11:29:52.311Z,2.78
2023-11-02T11:35:19.575Z,2.67
2023-11-02T11:40:38.313Z,3.83
2023-11-02T11:45:57.098Z,3.10
2023-11-02T11:51:04.782Z,2.40
2023-11-02T11:56:36.242Z,11.70
2023-11-02T12:01:41.341Z,6.20
2023-11-02T12:06:49.714Z,3.40
2023-11-02T12:11:54.759Z,7.27
2023-11-02T12:17:05.087Z,3.40
2023-11-02T12:22:13.920Z,2.90
2023-11-02T12:27:20.608Z,2.37
2023-11-02T12:32:25.660Z,2.20
2023-11-02T12:37:33.517Z,1.92
2023-11-02T12:42:39.991Z,2.15
2023-11-02T12:47:45.316Z,2.72
2023-11-02T12:52:53.039Z,2.72
2023-11-02T12:57:58.106Z,2.67
2023-11-02T13:03:17.136Z,2.45
2023-11-02T13:08:25.541Z,2.80
2023-11-02T13:13:30.587Z,2.85
2023-11-02T13:18:35.624Z,2.35
2023-11-02T13:23:47.179Z,3.15
2023-11-02T13:28:53.359Z,4.40
2023-11-02T13:33:58.652Z,2.92
2023-11-02T13:39:07.826Z,3.05
2023-11-02T13:44:12.984Z,3.95
2023-11-02T13:49:18.132Z,4.72
2023-11-02T13:54:25.812Z,10.27
2023-11-02T13:59:32.118Z,4.50
2023-11-02T14:04:37.433Z,5.35
2023-11-02T14:09:45.233Z,5.20
2023-11-02T14:14:50.768Z,6.15
2023-11-02T14:19:57.468Z,4.03
2023-11-02T14:25:06.200Z,4.03
2023-11-02T14:30:14.286Z,5.53
2023-11-02T14:35:19.591Z,5.60
2023-11-02T14:40:27.624Z,5.10
2023-11-02T14:45:32.759Z,6.22
2023-11-02T14:50:38.390Z,7.07
2023-11-02T14:55:46.076Z,7.22
2023-11-02T15:00:51.641Z,5.78
2023-11-02T15:05:56.697Z,7.25
2023-11-02T15:11:06.249Z,5.95
2023-11-02T15:21:17.940Z,7.30
2023-11-02T15:26:26.799Z,6.78
2023-11-02T15:31:33.059Z,6.50
2023-11-02T15:36:42.439Z,10.13
2023-11-02T15:41:52.272Z,10.13
2023-11-02T15:52:02.193Z,12.50
2023-11-02T15:57:12.619Z,14.05
2023-11-02T16:02:17.861Z,19.15
2023-11-02T16:07:24.098Z,16.73
2023-11-02T16:12:31.826Z,15.00
2023-11-02T16:17:36.856Z,11.57
2023-11-02T16:22:41.881Z,10.52
2023-11-02T16:27:49.639Z,15.77
2023-11-02T16:32:54.804Z,14.00
2023-11-02T16:38:02.492Z,14.93
2023-11-02T16:43:11.058Z,10.88
2023-11-02T16:48:16.170Z,8.50
2023-11-02T16:53:21.170Z,7.93
2023-11-02T16:58:30.766Z,6.43
2023-11-02T17:03:35.827Z,6.20
2023-11-02T17:08:40.842Z,6.07
2023-11-02T17:13:48.888Z,5.40
2023-11-02T17:18:53.994Z,6.43
2023-11-02T17:23:59.476Z,10.43
2023-11-02T17:29:07.092Z,9.65
2023-11-02T17:34:12.228Z,7.15
2023-11-02T17:39:17.410Z,5.72
2023-11-02T17:44:26.848Z,4.28
2023-11-02T17:49:32.013Z,4.77
2023-11-02T17:54:37.110Z,4.15
2023-11-02T17:59:45.810Z,4.55
2023-11-02T18:04:51.621Z,4.45
2023-11-02T18:09:57.570Z,2.90
2023-11-02T18:15:05.185Z,4.13
2023-11-02T18:20:13.639Z,2.85
2023-11-02T18:25:20.288Z,3.10
2023-11-02T18:30:27.979Z,3.25
2023-11-02T18:35:33.085Z,2.53
2023-11-02T18:40:38.146Z,3.00
2023-11-02T18:45:47.293Z,4.55
2023-11-02T18:50:52.405Z,2.67
2023-11-02T18:55:57.471Z,3.85
2023-11-02T19:01:05.158Z,2.92
2023-11-02T19:06:10.966Z,3.15
2023-11-02T19:11:16.005Z,3.20
2023-11-02T19:16:23.701Z,5.00
2023-11-02T19:21:28.866Z,4.97
2023-11-02T19:26:34.006Z,3.20
2023-11-02T19:31:49.094Z,4.00
2023-11-02T19:36:55.834Z,3.95
2023-11-02T19:42:01.703Z,4.30
2023-11-02T19:47:09.551Z,4.10
2023-11-02T19:52:14.657Z,4.07
2023-11-02T19:57:23.487Z,3.35
2023-11-02T20:02:31.544Z,4.28
2023-11-02T20:07:36.744Z,4.07
2023-11-02T20:12:43.040Z,4.13
2023-11-02T20:17:50.818Z,4.00
2023-11-02T20:22:56.870Z,3.85
2023-11-02T20:28:02.241Z,3.83
2023-11-02T20:33:13.260Z,4.47
2023-11-02T20:38:18.334Z,3.03
2023-11-02T20:43:23.979Z,2.95
2023-11-02T20:48:35.387Z,4.00
2023-11-02T20:53:40.897Z,4.10
2023-11-02T20:58:45.950Z,4.20
2023-11-02T21:03:53.653Z,7.55
2023-11-02T21:08:58.836Z,4.82
2023-11-02T21:14:04.118Z,4.00
2023-11-02T21:19:13.249Z,3.83
2023-11-02T21:24:18.501Z,3.87
2023-11-02T21:29:23.793Z,3.80
2023-11-02T21:34:31.466Z,3.97
2023-11-02T21:39:36.640Z,3.63
2023-11-02T21:44:43.583Z,3.60
2023-11-02T21:49:51.288Z,3.15
2023-11-02T21:54:56.363Z,3.67
2023-11-02T22:00:01.448Z,4.05
2023-11-02T22:05:10.090Z,3.58
2023-11-02T22:10:15.469Z,3.08
2023-11-02T22:15:20.742Z,3.05
2023-11-02T22:20:28.367Z,3.03
2023-11-02T22:25:33.435Z,2.97
2023-11-02T22:30:39.507Z,3.40
2023-11-02T22:35:47.122Z,2.60
2023-11-02T22:40:52.184Z,3.72
2023-11-02T22:45:58.834Z,3.60
2023-11-02T22:51:07.030Z,3.78
2023-11-02T22:56:13.110Z,3.83
2023-11-02T23:01:20.221Z,3.47
2023-11-02T23:06:28.831Z,3.40
2023-11-02T23:11:35.123Z,2.70
2023-11-02T23:16:43.847Z,3.42
2023-11-02T23:26:57.501Z,3.28
2023-11-02T23:32:08.578Z,3.55
2023-11-02T23:37:16.278Z,3.67
2023-11-02T23:42:21.324Z,3.97
2023-11-02T23:47:26.620Z,3.72
2023-11-02T23:52:34.301Z,3.72
2023-11-02T23:57:39.549Z,4.95
